createdAt,value
2022-11-30T00:00:54.852Z,67.50
2022-11-30T00:03:24.029Z,67.50
2022-11-30T00:05:53.864Z,67.50
2022-11-30T00:08:22.043Z,67.50
2022-11-30T00:10:50.145Z,67.50
2022-11-30T00:13:18.260Z,67.50
2022-11-30T00:15:46.348Z,67.50
2022-11-30T00:18:16.766Z,67.60
2022-11-30T00:20:44.908Z,67.50
2022-11-30T00:23:14.308Z,67.50
2022-11-30T00:25:42.432Z,67.50
2022-11-30T00:28:10.527Z,67.50
2022-11-30T00:30:38.744Z,67.50
2022-11-30T00:33:06.909Z,67.50
2022-11-30T00:35:35.194Z,67.50
2022-11-30T00:38:03.697Z,67.60
2022-11-30T00:40:33.153Z,67.50
2022-11-30T00:43:01.222Z,67.50
2022-11-30T00:45:29.309Z,67.50
2022-11-30T00:47:57.371Z,67.60
2022-11-30T00:50:25.495Z,67.60
2022-11-30T00:52:53.619Z,67.60
2022-11-30T00:55:21.732Z,67.60
2022-11-30T00:57:51.188Z,67.60
2022-11-30T01:00:20.098Z,67.50
2022-11-30T01:02:48.157Z,67.60
2022-11-30T01:05:16.453Z,67.60
2022-11-30T01:07:44.584Z,67.60
2022-11-30T01:10:12.869Z,67.50
2022-11-30T01:12:40.982Z,67.60
2022-11-30T01:15:11.638Z,67.60
2022-11-30T01:17:39.757Z,67.60
2022-11-30T01:20:09.156Z,67.60
2022-11-30T01:22:37.369Z,67.60
2022-11-30T01:25:06.121Z,67.60
2022-11-30T01:27:34.224Z,67.60
2022-11-30T01:30:02.374Z,67.60
2022-11-30T01:32:31.882Z,67.70
2022-11-30T01:35:00.005Z,67.60
2022-11-30T01:37:29.941Z,67.60
2022-11-30T01:39:58.069Z,67.60
2022-11-30T01:42:26.302Z,67.60
2022-11-30T01:44:56.679Z,67.70
2022-11-30T01:47:30.439Z,67.70
2022-11-30T01:50:07.372Z,67.60
2022-11-30T01:52:39.708Z,67.60
2022-11-30T01:55:19.829Z,67.60
2022-11-30T01:57:52.364Z,67.60
2022-11-30T02:00:21.193Z,67.60
2022-11-30T02:02:56.106Z,67.60
2022-11-30T02:05:26.970Z,67.60
2022-11-30T02:07:55.232Z,67.60
2022-11-30T02:10:27.470Z,67.60
2022-11-30T02:13:24.731Z,67.60
2022-11-30T02:16:03.025Z,67.60
2022-11-30T02:18:41.938Z,67.60
2022-11-30T02:21:15.312Z,67.60
2022-11-30T02:24:13.889Z,67.60
2022-11-30T02:27:00.948Z,67.60
2022-11-30T02:29:35.036Z,67.70
2022-11-30T02:32:08.042Z,67.60
2022-11-30T02:34:38.788Z,67.60
2022-11-30T02:37:09.054Z,67.60
2022-11-30T02:39:37.269Z,67.60
2022-11-30T02:42:06.988Z,67.70
2022-11-30T02:44:36.590Z,67.70
2022-11-30T02:47:16.237Z,67.60
2022-11-30T02:49:51.040Z,67.60
2022-11-30T02:52:22.681Z,67.70
2022-11-30T02:54:51.343Z,67.60
2022-11-30T02:57:19.490Z,67.60
2022-11-30T02:59:49.265Z,67.60
2022-11-30T03:02:17.389Z,67.70
2022-11-30T03:04:45.766Z,67.60
2022-11-30T03:07:14.118Z,67.60
2022-11-30T03:09:42.249Z,67.60
2022-11-30T03:12:10.332Z,67.60
2022-11-30T03:14:38.414Z,67.70
2022-11-30T03:17:07.978Z,67.60
2022-11-30T03:19:36.195Z,67.60
2022-11-30T03:22:04.375Z,67.70
2022-11-30T03:24:32.493Z,67.70
2022-11-30T03:27:01.037Z,68.20
2022-11-30T03:29:29.148Z,67.60
2022-11-30T03:31:57.274Z,67.70
2022-11-30T03:34:27.686Z,67.60
2022-11-30T03:36:55.976Z,67.60
2022-11-30T03:39:24.576Z,67.60
2022-11-30T03:41:52.779Z,67.70
2022-11-30T03:44:21.000Z,67.60
2022-11-30T03:46:49.154Z,67.60
2022-11-30T03:49:17.315Z,67.70
2022-11-30T03:51:46.787Z,67.70
2022-11-30T03:54:15.106Z,67.60
2022-11-30T03:56:43.215Z,67.60
2022-11-30T03:59:11.660Z,67.60
2022-11-30T04:01:41.097Z,67.70
2022-11-30T04:04:09.443Z,67.70
2022-11-30T04:06:38.149Z,67.70
2022-11-30T04:09:07.851Z,67.60
2022-11-30T04:11:36.140Z,67.60
2022-11-30T04:14:04.414Z,67.70
2022-11-30T04:16:32.820Z,67.60
2022-11-30T04:19:01.289Z,67.70
2022-11-30T04:21:29.570Z,67.70
2022-11-30T04:23:57.845Z,67.70
2022-11-30T04:26:27.609Z,67.80
2022-11-30T04:28:55.874Z,67.80
2022-11-30T04:31:24.199Z,67.80
2022-11-30T04:33:54.786Z,67.80
2022-11-30T04:36:23.676Z,67.80
2022-11-30T04:38:52.122Z,67.80
2022-11-30T04:41:20.205Z,67.90
2022-11-30T04:43:49.851Z,67.90
2022-11-30T04:46:18.134Z,68.00
2022-11-30T04:48:46.314Z,68.00
2022-11-30T04:51:14.448Z,68.10
2022-11-30T04:53:42.582Z,68.00
2022-11-30T04:56:12.336Z,68.10
2022-11-30T04:58:40.875Z,68.10
2022-11-30T05:01:10.441Z,68.10
2022-11-30T05:03:38.694Z,68.10
2022-11-30T05:06:07.453Z,68.20
2022-11-30T05:08:35.592Z,68.20
2022-11-30T05:11:03.759Z,68.20
2022-11-30T05:13:31.925Z,68.20
2022-11-30T05:16:00.148Z,68.20
2022-11-30T05:18:31.714Z,68.20
2022-11-30T05:20:59.850Z,68.30
2022-11-30T05:23:28.069Z,68.30
2022-11-30T05:25:56.401Z,68.30
2022-11-30T05:28:24.613Z,68.30
2022-11-30T05:30:52.692Z,68.40
2022-11-30T05:33:20.762Z,68.40
2022-11-30T05:35:50.303Z,68.40
2022-11-30T05:38:18.422Z,68.40
2022-11-30T05:40:46.548Z,68.40
2022-11-30T05:43:14.689Z,68.40
2022-11-30T05:45:42.750Z,68.40
2022-11-30T05:48:10.805Z,68.40
2022-11-30T05:50:38.911Z,68.40
2022-11-30T05:53:08.345Z,68.40
2022-11-30T05:55:37.130Z,68.40
2022-11-30T05:58:05.281Z,68.40
2022-11-30T06:00:33.397Z,68.40
2022-11-30T06:03:01.692Z,68.30
2022-11-30T06:05:29.968Z,68.30
2022-11-30T06:08:00.903Z,68.30
2022-11-30T06:10:30.373Z,68.30
2022-11-30T06:12:58.466Z,68.90
2022-11-30T06:15:26.544Z,68.20
2022-11-30T06:17:57.318Z,68.20
2022-11-30T06:20:25.658Z,68.20
2022-11-30T06:22:53.778Z,68.20
2022-11-30T06:25:21.918Z,68.20
2022-11-30T06:27:51.425Z,68.20
2022-11-30T06:30:19.944Z,68.20
2022-11-30T06:32:48.708Z,68.20
2022-11-30T06:35:17.099Z,68.20
2022-11-30T06:37:45.651Z,68.20
2022-11-30T06:40:15.375Z,68.10
2022-11-30T06:42:43.529Z,68.10
2022-11-30T06:45:13.317Z,68.10
2022-11-30T06:47:41.670Z,68.10
2022-11-30T06:50:10.253Z,68.10
2022-11-30T06:52:38.386Z,68.10
2022-11-30T06:55:08.071Z,68.10
2022-11-30T06:57:36.176Z,68.10
2022-11-30T07:00:05.984Z,68.10
2022-11-30T07:02:36.123Z,68.10
2022-11-30T07:05:04.245Z,68.10
2022-11-30T07:07:32.795Z,68.10
2022-11-30T07:10:00.998Z,68.10
2022-11-30T07:12:29.191Z,68.10
2022-11-30T07:14:57.289Z,68.10
2022-11-30T07:17:25.459Z,68.10
2022-11-30T07:19:54.963Z,68.10
2022-11-30T07:22:23.115Z,68.10
2022-11-30T07:25:08.801Z,68.10
2022-11-30T07:27:36.899Z,68.10
2022-11-30T07:30:06.033Z,68.10
2022-11-30T07:32:34.238Z,68.10
2022-11-30T07:35:03.928Z,68.10
2022-11-30T07:37:32.085Z,68.10
2022-11-30T07:40:00.201Z,68.00
2022-11-30T07:42:28.332Z,68.00
2022-11-30T07:44:58.925Z,68.00
2022-11-30T07:47:27.333Z,68.00
2022-11-30T07:49:55.462Z,68.00
2022-11-30T07:52:25.059Z,68.00
2022-11-30T07:57:22.068Z,67.20
2022-11-30T07:59:50.470Z,67.70
2022-11-30T08:02:18.811Z,67.90
2022-11-30T08:04:47.492Z,68.10
2022-11-30T08:07:15.908Z,68.10
2022-11-30T08:09:46.187Z,68.20
2022-11-30T08:12:14.359Z,68.20
2022-11-30T08:15:11.497Z,68.30
2022-11-30T08:17:30.461Z,68.30
2022-11-30T08:19:58.527Z,68.30
2022-11-30T08:22:26.683Z,68.30
2022-11-30T08:24:56.194Z,68.30
2022-11-30T08:28:01.506Z,68.30
2022-11-30T08:30:32.837Z,68.30
2022-11-30T08:33:01.121Z,68.30
2022-11-30T08:35:29.217Z,68.30
2022-11-30T08:37:57.332Z,68.30
2022-11-30T08:40:27.552Z,68.40
2022-11-30T08:42:55.693Z,68.30
2022-11-30T08:45:23.801Z,68.30
2022-11-30T08:47:51.875Z,68.40
2022-11-30T08:50:20.222Z,68.40
2022-11-30T08:52:48.307Z,68.40
2022-11-30T08:55:16.564Z,68.40
2022-11-30T08:57:46.094Z,68.40
2022-11-30T09:00:15.486Z,68.50
2022-11-30T09:02:43.668Z,68.40
2022-11-30T09:05:12.225Z,68.40
2022-11-30T09:07:40.777Z,68.40
2022-11-30T09:10:09.775Z,68.40
2022-11-30T09:12:38.779Z,68.50
2022-11-30T09:15:10.105Z,68.50
2022-11-30T09:17:38.274Z,68.40
2022-11-30T09:20:08.026Z,68.40
2022-11-30T09:22:36.173Z,68.40
2022-11-30T09:25:21.830Z,68.40
2022-11-30T09:27:49.938Z,68.40
2022-11-30T09:30:18.437Z,68.40
2022-11-30T09:32:46.547Z,68.40
2022-11-30T09:35:14.748Z,68.40
2022-11-30T09:37:42.862Z,68.40
2022-11-30T09:40:14.141Z,68.30
2022-11-30T09:42:52.744Z,68.40
2022-11-30T09:45:27.580Z,68.30
2022-11-30T09:48:18.763Z,68.30
2022-11-30T09:50:47.429Z,68.30
2022-11-30T09:53:28.914Z,68.30
2022-11-30T09:55:57.894Z,68.30
2022-11-30T09:58:38.110Z,68.30
2022-11-30T10:01:14.491Z,68.30
2022-11-30T10:03:42.662Z,68.40
2022-11-30T10:06:13.533Z,68.40
2022-11-30T10:08:51.260Z,68.40
2022-11-30T10:11:40.232Z,68.40
2022-11-30T10:14:24.195Z,68.30
2022-11-30T10:16:58.900Z,68.40
2022-11-30T10:19:49.930Z,68.40
2022-11-30T10:22:28.158Z,68.40
2022-11-30T10:25:11.825Z,68.50
2022-11-30T10:28:18.180Z,68.50
2022-11-30T10:30:53.467Z,68.60
2022-11-30T10:33:30.544Z,68.60
2022-11-30T10:36:07.228Z,68.60
2022-11-30T10:38:40.986Z,68.60
2022-11-30T10:41:14.313Z,68.70
2022-11-30T10:43:45.697Z,68.70
2022-11-30T10:46:22.286Z,68.70
2022-11-30T10:48:56.878Z,68.80
2022-11-30T10:51:26.411Z,68.80
2022-11-30T10:53:54.539Z,68.80
2022-11-30T10:56:22.701Z,68.80
2022-11-30T10:58:57.847Z,68.80
2022-11-30T11:01:36.338Z,68.90
2022-11-30T11:04:16.262Z,68.90
2022-11-30T11:06:47.191Z,68.90
2022-11-30T11:09:35.903Z,68.90
2022-11-30T11:12:05.832Z,68.90
2022-11-30T11:14:37.948Z,68.90
2022-11-30T11:17:22.371Z,69.00
2022-11-30T11:19:51.836Z,68.90
2022-11-30T11:22:22.895Z,69.00
2022-11-30T11:24:51.362Z,68.90
2022-11-30T11:27:26.828Z,68.90
2022-11-30T11:30:03.101Z,68.80
2022-11-30T11:32:32.988Z,68.80
2022-11-30T11:35:01.412Z,68.80
2022-11-30T11:37:31.548Z,68.80
2022-11-30T11:40:02.772Z,68.80
2022-11-30T11:42:35.420Z,68.80
2022-11-30T11:45:27.099Z,68.80
2022-11-30T11:48:05.412Z,68.80
2022-11-30T11:51:05.539Z,68.80
2022-11-30T11:53:43.293Z,68.90
2022-11-30T11:56:21.750Z,68.90
2022-11-30T11:58:54.379Z,68.90
2022-11-30T12:01:41.466Z,68.90
2022-11-30T12:04:37.374Z,68.90
2022-11-30T12:07:17.968Z,68.90
2022-11-30T12:10:01.026Z,68.90
2022-11-30T12:12:29.523Z,68.90
2022-11-30T12:14:58.011Z,68.90
2022-11-30T12:17:48.906Z,68.90
2022-11-30T12:20:25.225Z,68.90
2022-11-30T12:23:10.646Z,68.80
2022-11-30T12:25:44.879Z,68.80
2022-11-30T12:28:20.799Z,68.80
2022-11-30T12:31:01.341Z,68.80
2022-11-30T12:33:41.669Z,68.70
2022-11-30T12:36:19.174Z,68.70
2022-11-30T12:38:50.803Z,68.70
2022-11-30T12:41:36.553Z,68.70
2022-11-30T12:44:28.630Z,68.70
2022-11-30T12:47:06.679Z,68.70
2022-11-30T12:49:54.473Z,68.70
2022-11-30T12:52:35.441Z,68.70
2022-11-30T12:55:18.407Z,68.70
2022-11-30T12:57:55.163Z,68.70
2022-11-30T13:00:26.523Z,68.70
2022-11-30T13:03:13.260Z,68.60
2022-11-30T13:05:46.298Z,68.60
2022-11-30T13:08:23.416Z,68.70
2022-11-30T13:10:57.191Z,68.70
2022-11-30T13:13:30.033Z,68.70
2022-11-30T13:15:59.251Z,68.70
2022-11-30T13:18:28.424Z,68.60
2022-11-30T13:21:06.149Z,68.60
2022-11-30T13:23:38.785Z,68.60
2022-11-30T13:26:19.041Z,68.60
2022-11-30T13:29:02.166Z,68.60
2022-11-30T13:31:36.405Z,68.50
2022-11-30T13:34:04.581Z,68.50
2022-11-30T13:36:37.015Z,68.50
2022-11-30T13:39:23.501Z,68.50
2022-11-30T13:42:11.788Z,68.50
2022-11-30T13:44:41.479Z,68.40
2022-11-30T13:47:19.100Z,68.40
2022-11-30T13:49:47.796Z,68.40
2022-11-30T13:52:24.574Z,68.40
2022-11-30T13:54:55.659Z,68.40
2022-11-30T13:58:05.994Z,68.40
2022-11-30T14:01:01.369Z,68.40
2022-11-30T14:03:31.452Z,68.40
2022-11-30T14:06:00.888Z,68.40
2022-11-30T14:08:35.603Z,68.40
2022-11-30T14:11:40.861Z,68.40
2022-11-30T14:14:45.772Z,68.40
2022-11-30T14:17:18.088Z,68.40
2022-11-30T14:19:48.015Z,68.40
2022-11-30T14:22:16.809Z,68.40
2022-11-30T14:24:48.341Z,68.40
2022-11-30T14:27:21.173Z,68.40
2022-11-30T14:29:54.326Z,68.40
2022-11-30T14:32:31.123Z,68.40
2022-11-30T14:35:09.029Z,68.40
2022-11-30T14:37:44.000Z,68.30
2022-11-30T14:40:19.296Z,68.30
2022-11-30T14:42:54.416Z,68.40
2022-11-30T14:45:25.649Z,68.40
2022-11-30T14:48:04.706Z,68.40
2022-11-30T14:50:33.390Z,68.40
2022-11-30T14:53:22.566Z,68.40
2022-11-30T14:55:57.316Z,68.30
2022-11-30T14:58:37.247Z,68.40
2022-11-30T15:01:18.313Z,68.40
2022-11-30T15:03:47.071Z,68.40
2022-11-30T15:06:16.937Z,68.30
2022-11-30T15:08:47.784Z,68.40
2022-11-30T15:11:17.623Z,68.40
2022-11-30T15:13:49.190Z,68.40
2022-11-30T15:16:21.292Z,68.50
2022-11-30T15:18:50.141Z,69.10
2022-11-30T15:21:22.395Z,68.50
2022-11-30T15:23:51.666Z,68.50
2022-11-30T15:26:25.688Z,68.50
2022-11-30T15:28:59.273Z,68.50
2022-11-30T15:31:36.472Z,68.50
2022-11-30T15:34:05.506Z,68.50
2022-11-30T15:36:35.791Z,68.50
2022-11-30T15:39:06.672Z,68.50
2022-11-30T15:41:36.129Z,68.60
2022-11-30T15:44:26.590Z,68.60
2022-11-30T15:47:00.206Z,68.70
2022-11-30T15:49:30.428Z,68.70
2022-11-30T15:52:05.678Z,68.70
2022-11-30T15:54:52.709Z,68.70
2022-11-30T15:57:21.654Z,68.70
2022-11-30T16:00:07.832Z,68.80
2022-11-30T16:02:37.846Z,68.80
2022-11-30T16:05:22.831Z,68.80
2022-11-30T16:07:53.585Z,68.90
2022-11-30T16:10:24.418Z,68.90
2022-11-30T16:12:54.178Z,68.90
2022-11-30T16:15:25.845Z,68.90
2022-11-30T16:17:55.252Z,68.90
2022-11-30T16:20:24.110Z,68.90
2022-11-30T16:22:52.299Z,68.90
2022-11-30T16:25:22.488Z,69.00
2022-11-30T16:27:51.501Z,69.00
2022-11-30T16:30:24.077Z,69.00
2022-11-30T16:32:52.902Z,69.00
2022-11-30T16:35:24.563Z,68.90
2022-11-30T16:37:53.217Z,69.00
2022-11-30T16:40:21.749Z,69.00
2022-11-30T16:42:51.723Z,68.90
2022-11-30T16:45:23.185Z,68.90
2022-11-30T16:47:53.701Z,68.90
2022-11-30T16:50:21.922Z,68.90
2022-11-30T16:52:50.035Z,69.00
2022-11-30T16:55:20.478Z,68.90
2022-11-30T16:57:49.659Z,68.90
2022-11-30T17:00:20.851Z,68.90
2022-11-30T17:02:57.766Z,68.80
2022-11-30T17:05:41.327Z,68.80
2022-11-30T17:08:10.876Z,68.70
2022-11-30T17:10:39.776Z,68.60
2022-11-30T17:13:08.093Z,68.60
2022-11-30T17:15:36.273Z,68.60
2022-11-30T17:18:05.972Z,68.50
2022-11-30T17:20:34.141Z,68.50
2022-11-30T17:23:02.370Z,68.50
2022-11-30T17:25:30.550Z,68.50
2022-11-30T17:27:58.904Z,68.50
2022-11-30T17:30:27.881Z,68.50
2022-11-30T17:32:56.151Z,68.40
2022-11-30T17:35:25.653Z,68.50
2022-11-30T17:37:55.432Z,68.50
2022-11-30T17:40:23.512Z,68.50
2022-11-30T17:42:51.605Z,68.50
2022-11-30T17:45:19.826Z,68.50
2022-11-30T17:47:47.867Z,68.50
2022-11-30T17:50:16.161Z,68.50
2022-11-30T17:52:45.755Z,68.50
2022-11-30T17:55:13.940Z,68.60
2022-11-30T17:57:42.063Z,68.60
2022-11-30T18:00:10.950Z,68.60
2022-11-30T18:02:39.058Z,68.60
2022-11-30T18:05:08.035Z,68.60
2022-11-30T18:07:36.323Z,68.70
2022-11-30T18:10:06.824Z,68.70
2022-11-30T18:12:34.965Z,68.70
2022-11-30T18:15:03.167Z,68.70
2022-11-30T18:17:32.394Z,68.70
2022-11-30T18:20:00.546Z,68.70
2022-11-30T18:22:29.250Z,68.70
2022-11-30T18:24:57.294Z,68.70
2022-11-30T18:27:26.852Z,68.70
2022-11-30T18:29:55.532Z,68.70
2022-11-30T18:32:23.650Z,68.70
2022-11-30T18:34:51.783Z,68.60
2022-11-30T18:37:19.895Z,68.60
2022-11-30T18:39:48.455Z,68.60
2022-11-30T18:42:18.210Z,68.60
2022-11-30T18:44:47.903Z,68.60
2022-11-30T18:47:16.544Z,68.60
2022-11-30T18:49:44.674Z,68.60
2022-11-30T18:52:12.800Z,68.60
2022-11-30T18:54:40.894Z,68.60
2022-11-30T18:57:08.991Z,68.60
2022-11-30T18:59:37.109Z,68.60
2022-11-30T19:02:06.804Z,68.60
2022-11-30T19:04:35.376Z,68.60
2022-11-30T19:07:03.514Z,68.60
2022-11-30T19:09:31.756Z,68.60
2022-11-30T19:12:00.214Z,68.60
2022-11-30T19:14:28.365Z,68.70
2022-11-30T19:16:56.534Z,68.70
2022-11-30T19:19:26.107Z,68.70
2022-11-30T19:21:54.326Z,68.70
2022-11-30T19:24:22.439Z,69.40
2022-11-30T19:26:50.564Z,68.80
2022-11-30T19:29:18.621Z,68.90
2022-11-30T19:31:46.763Z,68.90
2022-11-30T19:34:15.116Z,68.90
2022-11-30T19:36:44.602Z,68.90
2022-11-30T19:39:12.724Z,68.90
2022-11-30T19:41:40.824Z,68.90
2022-11-30T19:44:13.432Z,69.00
2022-11-30T19:46:42.420Z,68.90
2022-11-30T19:49:11.579Z,68.90
2022-11-30T19:51:39.842Z,69.00
2022-11-30T19:54:09.744Z,69.00
2022-11-30T19:56:39.058Z,69.00
2022-11-30T19:59:07.171Z,68.90
2022-11-30T20:01:36.053Z,69.00
2022-11-30T20:04:04.889Z,69.00
2022-11-30T20:06:36.335Z,69.00
2022-11-30T20:09:05.604Z,69.00
2022-11-30T20:11:35.832Z,69.00
2022-11-30T20:16:37.087Z,69.00
2022-11-30T20:19:05.269Z,69.00
2022-11-30T20:21:35.377Z,69.00
2022-11-30T20:24:06.111Z,69.00
2022-11-30T20:26:37.268Z,69.00
2022-11-30T20:29:06.783Z,69.00
2022-11-30T20:31:36.846Z,69.10
2022-11-30T20:34:05.259Z,69.40
2022-11-30T20:36:33.675Z,69.10
2022-11-30T20:39:02.928Z,69.00
2022-11-30T20:41:31.287Z,69.00
2022-11-30T20:44:01.598Z,69.10
2022-11-30T20:46:31.725Z,69.10
2022-11-30T20:49:01.340Z,69.10
2022-11-30T20:51:32.467Z,69.10
2022-11-30T20:54:02.304Z,69.00
2022-11-30T20:56:30.612Z,69.10
2022-11-30T20:59:05.104Z,69.10
2022-11-30T21:01:33.955Z,69.10
2022-11-30T21:04:02.311Z,69.10
2022-11-30T21:06:31.273Z,69.10
2022-11-30T21:09:00.002Z,69.10
2022-11-30T21:11:29.193Z,69.00
2022-11-30T21:13:58.363Z,69.10
2022-11-30T21:16:30.144Z,69.10
2022-11-30T21:18:59.801Z,69.10
2022-11-30T21:21:30.918Z,69.10
2022-11-30T21:24:00.738Z,69.10
2022-11-30T21:26:30.892Z,69.10
2022-11-30T21:29:02.017Z,69.10
2022-11-30T21:31:31.627Z,69.10
2022-11-30T21:34:00.633Z,69.10
2022-11-30T21:36:29.847Z,69.10
2022-11-30T21:39:04.997Z,69.10
2022-11-30T21:41:35.667Z,69.10
2022-11-30T21:44:04.388Z,69.10
2022-11-30T21:46:34.452Z,69.10
2022-11-30T21:49:03.401Z,69.10
2022-11-30T21:51:32.736Z,69.10
2022-11-30T21:54:03.410Z,69.10
2022-11-30T21:56:33.507Z,69.10
2022-11-30T21:59:02.692Z,69.70
2022-11-30T22:01:34.256Z,69.10
2022-11-30T22:04:03.799Z,69.10
2022-11-30T22:06:33.544Z,69.10
2022-11-30T22:09:07.652Z,69.10
2022-11-30T22:11:38.372Z,69.10
2022-11-30T22:14:07.363Z,69.10
2022-11-30T22:16:37.095Z,69.10
2022-11-30T22:19:06.755Z,69.10
2022-11-30T22:21:35.609Z,69.10
2022-11-30T22:24:06.064Z,69.10
2022-11-30T22:26:35.945Z,69.10
2022-11-30T22:29:06.522Z,69.10
2022-11-30T22:31:37.818Z,69.10
2022-11-30T22:34:06.559Z,69.10
2022-11-30T22:36:36.665Z,69.10
2022-11-30T22:39:07.426Z,69.10
2022-11-30T22:41:35.649Z,69.10
2022-11-30T22:44:04.561Z,69.10
2022-11-30T22:46:34.686Z,69.10
2022-11-30T22:49:06.866Z,69.10
2022-11-30T22:51:36.613Z,69.20
2022-11-30T22:54:05.166Z,69.10
2022-11-30T22:56:35.285Z,69.10
2022-11-30T22:59:04.034Z,69.20
2022-11-30T23:01:33.926Z,69.10
2022-11-30T23:04:05.982Z,69.10
2022-11-30T23:06:35.041Z,69.10
2022-11-30T23:09:04.516Z,69.10
2022-11-30T23:11:33.176Z,69.10
2022-11-30T23:14:01.572Z,69.10
2022-11-30T23:16:29.940Z,69.80
2022-11-30T23:18:58.373Z,69.10
2022-11-30T23:21:30.230Z,69.20
2022-11-30T23:24:00.406Z,69.20
2022-11-30T23:26:30.465Z,69.10
2022-11-30T23:29:01.294Z,69.20
2022-11-30T23:31:35.486Z,69.10
2022-11-30T23:34:06.092Z,69.10
2022-11-30T23:36:36.944Z,69.10
2022-11-30T23:39:07.462Z,69.10
2022-11-30T23:41:35.735Z,69.10
2022-11-30T23:44:04.222Z,69.10
2022-11-30T23:46:32.459Z,69.10
2022-11-30T23:49:00.849Z,69.10
2022-11-30T23:51:29.220Z,69.10
2022-11-30T23:53:58.777Z,69.10
2022-11-30T23:56:27.391Z,69.20
2022-11-30T23:58:55.556Z,69.10
